• Join FlightAware (Why Join?)
  • Login
  • US Flag 
03:31PM EDT


 

Airport Tracker/Info


-or-


 

Live Flight TrackerFlight Track Log ✈ FDX708 ✈ 18-Apr-2013 ✈ KMEM - KPHL

Flight Track Log - Related Links

Times and Time Zones

All times are in EDT time to prevent confusion due to time zone crossing. See the FDX708 flight status page for this flight to view local times or setup timezone preferences in your user account.

Time Position Orientation Groundspeed Altitude Reporting Facility
EDT Latitude Longitude Course Direction KTS MPH feet Rate Location/Type
03:55PM 35.0167 -89.9667 180° South 160 184 1,100  Level KMEM
03:55PM 35.0000 -89.9667 180° South 155 178 2,100 1,800 Climbing KMEM
03:56PM 35.0000 -89.8667 90° East 280 322 4,200 2,280 Climbing KMEM
03:57PM 35.0167 -89.8000 73° East 305 351 6,600 2,580 Climbing KMEM
03:58PM 35.0667 -89.6833 62° Northeast 322 371 9,200 1,800 Climbing KMEM
03:59PM 35.0986 -89.5728 71° East 352 405 10,400 1,680 Climbing Memphis Center
04:00PM 35.1417 -89.4403 68° East 380 437 12,700 2,400 Climbing Memphis Center
04:01PM 35.1844 -89.3103 68° East 408 470 15,300 2,280 Climbing Memphis Center
04:02PM 35.2269 -89.1750 69° East 417 480 17,300 1,800 Climbing Memphis Center
04:03PM 35.2778 -89.0369 66° East 431 496 18,900 1,740 Climbing Memphis Center
04:04PM 35.3325 -88.8911 65° Northeast 451 519 20,800 1,800 Climbing Memphis Center
04:05PM 35.3869 -88.7475 65° Northeast 464 534 22,600 1,260 Climbing Memphis Center
04:06PM 35.4331 -88.6117 67° East 464 534 23,400 1,080 Climbing Memphis Center
04:13PM 35.8180 -87.5800 67° East 537 618 31,000 1,140 Climbing FlightAware
04:13PM 35.8590 -87.4650 66° East 542 624 31,700 960 Climbing FlightAware
04:14PM 35.9060 -87.3340 66° East 545 627 32,400 900 Climbing FlightAware
04:15PM 35.9470 -87.2200 66° East 546 628 33,000 420 Climbing FlightAware
04:16PM 35.9870 -87.1060 67° East 544 626 33,000  Level FlightAware
04:16PM 36.0310 -86.9850 66° East 540 621 33,000  Level FlightAware
04:17PM 36.0720 -86.8660 67° East 540 621 33,000  Level FlightAware
04:17PM 36.0996 -86.7923 65° Northeast 546 628 33,000  Level FlightAware ADS-B
04:18PM 36.1305 -86.7038 67° East 541 623 33,000  Level FlightAware ADS-B
04:18PM 36.1620 -86.6106 67° East 533 613 33,000  Level FlightAware ADS-B
04:19PM 36.1894 -86.5227 69° East 533 613 33,000  Level FlightAware ADS-B
04:20PM 36.2249 -86.4142 68° East 535 616 33,000 360 Level FlightAware ADS-B
04:21PM 36.2764 -86.2543 68° East 536 617 33,600 660 Climbing FlightAware ADS-B
04:21PM 36.3046 -86.1657 68° East 537 618 34,000 900 Climbing FlightAware ADS-B
04:22PM 36.3348 -86.0715 68° East 535 616 34,600 1,140 Climbing FlightAware ADS-B
04:23PM 36.3975 -85.8726 69° East 521 600 36,000 1,080 Climbing FlightAware ADS-B
04:23PM 36.4260 -85.7839 68° East 517 595 36,500 600 Climbing FlightAware ADS-B
04:24PM 36.4730 -85.6350 69° East 517 595 37,000 300 Climbing FlightAware
04:25PM 36.5050 -85.5320 69° East 525 604 37,000  Level FlightAware
04:25PM 36.5339 -85.4414 68° East 532 612 37,000  Level FlightAware ADS-B
04:26PM 36.5619 -85.3504 69° East 529 609 37,000  Level FlightAware ADS-B
04:26PM 36.5885 -85.2655 69° East 527 606 37,000  Level FlightAware ADS-B
04:27PM 36.6174 -85.1723 69° East 527 606 37,000  Level FlightAware ADS-B
04:28PM 36.6458 -85.0797 69° East 518 596 37,000  Level FlightAware ADS-B
04:28PM 36.6867 -84.9459 69° East 518 596 37,000  Level FlightAware ADS-B
04:29PM 36.7158 -84.8506 69° East 522 601 37,000  Level FlightAware ADS-B
04:29PM 36.7428 -84.7636 69° East 521 600 37,000  Level FlightAware ADS-B
04:30PM 36.7695 -84.6739 70° East 521 600 37,000  Level FlightAware ADS-B
04:30PM 36.7965 -84.5868 69° East 521 600 37,000  Level FlightAware ADS-B
04:31PM 36.8230 -84.4972 70° East 517 595 37,000  Level FlightAware ADS-B
04:31PM 36.8480 -84.4140 69° East 512 589 37,000  Level FlightAware ADS-B
04:32PM 36.8736 -84.3284 69° East 509 586 37,000  Level FlightAware ADS-B
04:33PM 36.8999 -84.2406 69° East 508 585 37,000  Level FlightAware ADS-B
04:33PM 36.9380 -84.1160 69° East 507 583 37,000  Level FlightAware
04:34PM 36.9694 -84.0079 70° East 503 579 37,000  Level FlightAware ADS-B
04:34PM 36.9939 -83.9263 69° East 503 579 37,000  Level FlightAware ADS-B
04:35PM 37.0184 -83.8417 70° East 502 578 37,000  Level FlightAware ADS-B
04:35PM 37.0448 -83.7519 70° East 503 579 37,000  Level FlightAware ADS-B
04:36PM 37.0734 -83.6559 69° East 507 583 37,000  Level FlightAware ADS-B
04:37PM 37.0984 -83.5703 70° East 509 586 37,000  Level FlightAware ADS-B
04:37PM 37.1229 -83.4846 70° East 510 587 37,000  Level FlightAware ADS-B
04:38PM 37.1715 -83.3175 70° East 510 587 37,000 60 Level FlightAware ADS-B
04:39PM 37.1990 -83.2250 70° East 515 593 37,100 60 Climbing FlightAware
04:39PM 37.2257 -83.1295 71° East 515 593 37,100 -120 Level FlightAware ADS-B
04:40PM 37.2540 -83.0314 70° East 513 590 37,000 -60 Descending FlightAware ADS-B
04:42PM 37.3531 -82.6830 70° East 507 583 37,000  Level FlightAware ADS-B
04:42PM 37.3781 -82.5939 71° East 508 585 37,000  Level FlightAware ADS-B
04:43PM 37.4136 -82.4673 71° East 504 580 37,000  Level FlightAware ADS-B
04:44PM 37.4441 -82.3574 71° East 501 577 37,000  Level FlightAware ADS-B
04:44PM 37.4684 -82.2696 71° East 502 578 37,000  Level FlightAware ADS-B
04:45PM 37.4927 -82.1842 70° East 500 575 37,000  Level FlightAware ADS-B
04:45PM 37.5165 -82.0961 71° East 500 575 37,000  Level FlightAware ADS-B
04:46PM 37.5380 -82.0170 71° East 500 575 37,000  Level FlightAware
04:46PM 37.5480 -81.9835 69° East 501 577 37,000  Level FlightAware ADS-B
04:47PM 37.5707 -81.9010 71° East 500 575 37,000  Level FlightAware ADS-B
04:47PM 37.5934 -81.8185 71° East 501 577 37,000  Level FlightAware ADS-B
04:48PM 37.6170 -81.7300 71° East 503 579 37,000  Level FlightAware ADS-B
04:48PM 37.6412 -81.6441 70° East 505 581 37,000  Level FlightAware ADS-B
04:49PM 37.6638 -81.5576 72° East 504 580 37,000 60 Level FlightAware ADS-B
04:49PM 37.6862 -81.4741 71° East 504 580 37,100 60 Climbing FlightAware ADS-B
04:50PM 37.7108 -81.3851 71° East 505 581 37,100  Level FlightAware ADS-B
04:50PM 37.7344 -81.2958 71° East 504 580 37,100 -120 Level FlightAware ADS-B
04:51PM 37.7573 -81.2096 71° East 504 580 37,000 -120 Descending FlightAware ADS-B
04:52PM 37.7830 -81.0810 76° East 508 585 37,000  Level FlightAware
04:52PM 37.7861 -81.0339 85° East 509 586 37,000  Level FlightAware ADS-B
04:53PM 37.7990 -80.8460 85° East 504 580 37,000  Level FlightAware
04:54PM 37.8070 -80.7190 85° East 504 580 37,000  Level FlightAware
04:54PM 37.8150 -80.5990 85° East 502 578 37,000  Level FlightAware
04:55PM 37.8230 -80.4700 85° East 502 578 37,000  Level FlightAware
04:56PM 37.8310 -80.3480 85° East 503 579 37,000  Level FlightAware
04:56PM 37.8380 -80.2310 86° East 498 573 37,000 -180 Level FlightAware
04:57PM 37.8450 -80.1030 86° East 498 573 36,800 -1,080 Descending FlightAware
04:58PM 37.8520 -79.9870 86° East 499 574 35,500 -1,980 Descending FlightAware
04:59PM 37.8600 -79.8550 86° East 504 580 34,000 -1,800 Descending FlightAware
04:59PM 37.8670 -79.7380 86° East 502 578 33,000 -720 Descending FlightAware
05:00PM 37.8740 -79.6080 86° East 493 567 33,000  Level FlightAware
05:01PM 37.8800 -79.4990 86° East 495 570 33,000  Level FlightAware
05:01PM 37.8897 -79.4019 86° East 497 572 33,000  Level Washington Center
05:02PM 37.8992 -79.2314 86° East 497 572 33,000 -240 Level Washington Center
05:08PM 37.9950 -78.3160 86° East 501 577 31,700 -360 Descending FlightAware
05:09PM 38.0370 -78.1130 75° East 502 578 31,000 -480 Descending FlightAware
05:09PM 38.0750 -78.0290 60° Northeast 502 578 30,900 -720 Descending FlightAware
05:11PM 38.1860 -77.8090 57° Northeast 495 570 29,500 -900 Descending FlightAware
05:12PM 38.2520 -77.6750 58° Northeast 489 563 29,000 -360 Descending FlightAware
05:12PM 38.2980 -77.5820 58° Northeast 491 565 29,000  Level FlightAware
05:13PM 38.3720 -77.4300 58° Northeast 490 564 29,000  Level FlightAware
05:14PM 38.4220 -77.3300 57° Northeast 488 562 29,000  Level FlightAware
05:15PM 38.4700 -77.2320 58° Northeast 489 563 29,000  Level FlightAware
05:15PM 38.5210 -77.1270 58° Northeast 489 563 29,000  Level FlightAware
05:16PM 38.5482 -77.0699 59° Northeast 491 565 29,000 -840 Level FlightAware ADS-B
05:16PM 38.5840 -76.9960 58° Northeast 484 557 28,300 -2,100 Descending FlightAware
05:17PM 38.6407 -76.8790 58° Northeast 469 540 26,300 -2,400 Descending FlightAware ADS-B
05:18PM 38.6750 -76.8090 58° Northeast 465 535 25,100 -2,460 Descending FlightAware
05:18PM 38.7024 -76.7444 61° Northeast 460 529 24,000 -2,340 Descending FlightAware ADS-B
05:19PM 38.7274 -76.6365 73° East 449 517 22,700 -1,920 Descending FlightAware ADS-B
05:19PM 38.7439 -76.5607 74° East 437 503 21,700 -1,920 Descending FlightAware ADS-B
05:20PM 38.7598 -76.4841 75° East 428 493 20,800 -1,920 Descending FlightAware ADS-B
05:20PM 38.7752 -76.4109 75° East 423 487 19,800 -1,920 Descending FlightAware ADS-B
05:21PM 38.7903 -76.3363 75° East 418 481 18,900 -1,920 Descending FlightAware ADS-B
05:21PM 38.8060 -76.2599 75° East 417 480 17,800 -1,920 Descending FlightAware ADS-B
05:22PM 38.8239 -76.1750 75° East 408 470 16,700 -1,800 Descending FlightAware ADS-B
05:22PM 38.8389 -76.0988 76° East 402 463 15,800 -1,740 Descending FlightAware ADS-B
05:23PM 38.8542 -76.0277 75° East 398 458 14,900 -900 Descending FlightAware ADS-B
05:23PM 38.8700 -75.9479 76° East 396 456 14,800 -120 Descending FlightAware ADS-B
05:24PM 38.8852 -75.8776 74° East 398 458 14,800  Level FlightAware ADS-B
05:24PM 38.8934 -75.8536 66° East 402 463 14,800  Level FlightAware ADS-B
05:24PM 38.9032 -75.8355 55° Northeast 403 464 14,800  Level FlightAware ADS-B
05:24PM 38.9108 -75.8226 53° Northeast 404 465 14,800  Level FlightAware ADS-B
05:25PM 38.9268 -75.8049 41° Northeast 406 467 14,800 -720 Level FlightAware ADS-B
05:25PM 38.9736 -75.7612 36° Northeast 405 466 14,300 -1,620 Descending FlightAware ADS-B
05:26PM 39.0185 -75.7181 37° Northeast 400 460 13,200 -2,220 Descending FlightAware ADS-B
05:26PM 39.0448 -75.6948 35° Northeast 396 456 12,600 -2,100 Descending FlightAware ADS-B
05:26PM 39.0701 -75.6796 25° Northeast 393 452 12,100 -2,040 Descending FlightAware ADS-B
05:26PM 39.0844 -75.6751 14° North 390 449 11,800 -1,740 Descending FlightAware ADS-B
05:27PM 39.1064 -75.6720 North 382 440 11,500 -1,020 Descending FlightAware ADS-B
05:27PM 39.1579 -75.6673 North 357 411 11,100 -840 Descending FlightAware ADS-B
05:28PM 39.2062 -75.6603 North 338 389 10,700 -900 Descending FlightAware ADS-B
05:28PM 39.2556 -75.6545 North 320 368 10,200 -960 Descending FlightAware ADS-B
05:28PM 39.2749 -75.6519 North 319 367 10,000 -900 Descending FlightAware ADS-B
05:28PM 39.2849 -75.6489 13° North 319 367 9,900 -900 Descending FlightAware ADS-B
05:29PM 39.2937 -75.6441 23° Northeast 316 364 9,800 -540 Descending FlightAware ADS-B
05:29PM 39.3009 -75.6387 30° Northeast 314 361 9,800  Level FlightAware ADS-B
05:29PM 39.3056 -75.6357 26° Northeast 314 361 9,800 -540 Level FlightAware ADS-B
05:29PM 39.3287 -75.6141 36° Northeast 314 361 9,600 -540 Descending FlightAware ADS-B
05:29PM 39.3491 -75.5974 32° Northeast 317 365 9,500 -540 Descending FlightAware ADS-B
05:30PM 39.3716 -75.5775 34° Northeast 319 367 9,300 -480 Descending FlightAware ADS-B
05:30PM 39.3836 -75.5667 35° Northeast 317 365 9,300 -420 Level FlightAware ADS-B
05:30PM 39.3896 -75.5607 38° Northeast 316 364 9,200 -900 Descending FlightAware ADS-B
05:30PM 39.3987 -75.5489 45° Northeast 313 360 9,100 -480 Descending FlightAware ADS-B
05:30PM 39.4025 -75.5432 49° Northeast 313 360 9,100 -300 Level FlightAware ADS-B
05:30PM 39.4169 -75.5200 51° Northeast 312 359 9,000 -600 Descending FlightAware ADS-B
05:31PM 39.4320 -75.4971 50° Northeast 313 360 8,800 -480 Descending FlightAware ADS-B
05:31PM 39.4523 -75.4675 48° Northeast 313 360 8,700 -540 Descending FlightAware ADS-B
05:31PM 39.4674 -75.4452 49° Northeast 312 359 8,500 -600 Descending FlightAware ADS-B
05:31PM 39.4820 -75.4242 48° Northeast 308 354 8,400 -420 Descending FlightAware ADS-B
05:32PM 39.4964 -75.4034 48° Northeast 308 354 8,300 -540 Descending FlightAware ADS-B
05:32PM 39.5139 -75.3773 49° Northeast 303 349 8,100 -660 Descending FlightAware ADS-B
05:32PM 39.5308 -75.3512 50° Northeast 301 346 7,900 -600 Descending FlightAware ADS-B
05:33PM 39.5440 -75.3325 48° Northeast 299 344 7,800 -300 Descending FlightAware ADS-B
05:33PM 39.5508 -75.3256 38° Northeast 300 345 7,800 -720 Level FlightAware ADS-B
05:33PM 39.5544 -75.3226 33° Northeast 300 345 7,700 -600 Descending FlightAware ADS-B
05:33PM 39.5645 -75.3165 25° Northeast 300 345 7,700 -480 Level FlightAware ADS-B
05:33PM 39.5718 -75.3139 15° North 299 344 7,600 -600 Descending FlightAware ADS-B
05:33PM 39.5789 -75.3131 North 298 343 7,600 -480 Level FlightAware ADS-B
05:33PM 39.5888 -75.3140 356° North 296 341 7,500 -480 Descending FlightAware ADS-B
05:33PM 39.5966 -75.3165 346° North 294 338 7,500 -720 Level FlightAware ADS-B
05:33PM 39.6013 -75.3188 339° North 293 337 7,400 -660 Descending FlightAware ADS-B
05:34PM 39.6205 -75.3284 339° North 289 333 7,300 -600 Descending FlightAware ADS-B
05:34PM 39.6274 -75.3313 342° North 286 329 7,200 -420 Descending FlightAware ADS-B
05:34PM 39.6410 -75.3370 342° North 276 318 7,200 -480 Level FlightAware ADS-B
05:34PM 39.6614 -75.3447 344° North 261 300 7,000 -600 Descending FlightAware ADS-B
05:34PM 39.6789 -75.3517 343° North 248 285 6,900 -420 Descending FlightAware ADS-B
05:35PM 39.6956 -75.3590 341° North 237 273 6,800 -600 Descending FlightAware ADS-B
05:35PM 39.7119 -75.3665 341° North 232 267 6,600 -540 Descending FlightAware ADS-B
05:35PM 39.7188 -75.3712 332° Northwest 229 264 6,600 -420 Level FlightAware ADS-B
05:35PM 39.7238 -75.3776 315° West 221 254 6,500 -600 Descending FlightAware ADS-B
05:35PM 39.7258 -75.3807 310° West 216 249 6,500 -720 Level FlightAware ADS-B
05:35PM 39.7282 -75.3875 295° West 206 237 6,400 -600 Descending FlightAware ADS-B
05:35PM 39.7294 -75.3921 289° West 199 229 6,400 -900 Level FlightAware ADS-B
05:35PM 39.7300 -75.3955 283° West 194 223 6,300 -900 Descending FlightAware ADS-B
05:36PM 39.7304 -75.4000 277° West 188 216 6,300 -600 Level FlightAware ADS-B
05:36PM 39.7304 -75.4077 270° West 178 205 6,200 -540 Descending FlightAware ADS-B
05:36PM 39.7298 -75.4130 262° West 173 199 6,200  Level FlightAware ADS-B
05:36PM 39.7288 -75.4180 255° West 168 193 6,200 -660 Level FlightAware ADS-B
05:36PM 39.7258 -75.4314 254° West 169 194 6,000 -720 Descending FlightAware ADS-B
05:36PM 39.7234 -75.4423 254° West 170 196 5,900 -540 Descending FlightAware ADS-B
05:36PM 39.7208 -75.4542 254° West 172 198 5,800 -240 Descending FlightAware ADS-B
05:37PM 39.7175 -75.4713 256° West 172 198 5,800 -180 Level FlightAware ADS-B
05:37PM 39.7142 -75.4884 256° West 172 198 5,700 -420 Descending FlightAware ADS-B
05:37PM 39.7112 -75.5034 255° West 171 197 5,600 -600 Descending FlightAware ADS-B
05:37PM 39.7080 -75.5182 254° West 170 196 5,400 -720 Descending FlightAware ADS-B
05:38PM 39.7057 -75.5291 255° West 171 197 5,300 -300 Descending FlightAware ADS-B
05:38PM 39.7040 -75.5391 258° West 174 200 5,300 -540 Level FlightAware ADS-B
05:38PM 39.7039 -75.5424 268° West 178 205 5,200 -1,020 Descending FlightAware ADS-B
05:38PM 39.7043 -75.5457 279° West 183 211 5,200  Level FlightAware ADS-B
05:38PM 39.7053 -75.5489 292° West 188 216 5,200 -720 Level FlightAware ADS-B
05:38PM 39.7075 -75.5539 300° West 194 223 5,100 -780 Descending FlightAware ADS-B
05:38PM 39.7098 -75.5574 311° West 202 232 5,100  Level FlightAware ADS-B
05:38PM 39.7133 -75.5605 326° Northwest 207 238 5,100 -720 Level FlightAware ADS-B
05:38PM 39.7164 -75.5630 328° Northwest 212 244 5,000 -900 Descending FlightAware ADS-B
05:38PM 39.7192 -75.5646 336° Northwest 212 244 5,000 -600 Level FlightAware ADS-B
05:38PM 39.7263 -75.5679 340° North 210 242 4,900 -540 Descending FlightAware ADS-B
05:39PM 39.7405 -75.5737 343° North 205 236 4,800 -600 Descending FlightAware ADS-B
05:39PM 39.7551 -75.5795 343° North 205 236 4,600 -1,020 Descending FlightAware ADS-B
05:39PM 39.7688 -75.5850 343° North 205 236 4,300 -1,200 Descending FlightAware ADS-B
05:39PM 39.7738 -75.5871 342° North 208 239 4,200 -1,020 Descending FlightAware ADS-B
05:39PM 39.7797 -75.5877 356° North 212 244 4,100 -600 Descending FlightAware ADS-B
05:39PM 39.7841 -75.5870 North 213 245 4,100 -600 Level FlightAware ADS-B
05:40PM 39.7896 -75.5837 25° Northeast 211 243 4,000 -480 Descending FlightAware ADS-B
05:40PM 39.7950 -75.5793 32° Northeast 208 239 4,000 -540 Level FlightAware ADS-B
05:40PM 39.7982 -75.5737 53° Northeast 207 238 3,900 -720 Descending FlightAware ADS-B
05:40PM 39.7996 -75.5706 60° Northeast 201 231 3,900 -720 Level FlightAware ADS-B
05:40PM 39.8017 -75.5652 63° Northeast 197 227 3,800 -600 Descending FlightAware ADS-B
05:40PM 39.8061 -75.5474 72° East 194 223 3,700 -300 Descending FlightAware ADS-B
05:40PM 39.8080 -75.5395 73° East 194 223 3,700 -600 Level FlightAware ADS-B
05:41PM 39.8115 -75.5217 76° East 189 217 3,500 -600 Descending FlightAware ADS-B
05:41PM 39.8145 -75.5063 76° East 185 213 3,400 -720 Descending FlightAware ADS-B
05:41PM 39.8172 -75.4936 75° East 183 211 3,200 -900 Descending FlightAware ADS-B
05:41PM 39.8207 -75.4753 76° East 182 209 3,000 -960 Descending FlightAware ADS-B
05:42PM 39.8240 -75.4597 75° East 178 205 2,700 -960 Descending FlightAware ADS-B
05:42PM 39.8273 -75.4432 75° East 176 203 2,500 -960 Descending FlightAware ADS-B
05:42PM 39.8307 -75.4258 76° East 174 200 2,200 -900 Descending FlightAware ADS-B
05:42PM 39.8327 -75.4159 75° East 170 196 2,100 -900 Descending FlightAware ADS-B
05:43PM 39.8360 -75.3991 76° East 166 191 1,800 -960 Descending FlightAware ADS-B
05:43PM 39.8389 -75.3849 75° East 159 183 1,600 -1,020 Descending FlightAware ADS-B
05:43PM 39.8416 -75.3714 75° East 148 170 1,300 -1,020 Descending FlightAware ADS-B
05:43PM 39.8432 -75.3638 75° East 143 165 1,200 -720 Descending FlightAware ADS-B
05:43PM 39.8457 -75.3509 76° East 135 155 1,000 -780 Descending FlightAware ADS-B